sensor_id;sensor_type;location;lat;lon;timestamp;temperature;humidity
26721;HTU21D;15950;51.112;6.966;2022-12-18T00:01:58;-2.50;77.84
26721;HTU21D;15950;51.112;6.966;2022-12-18T00:04:58;-2.47;78.01
26721;HTU21D;15950;51.112;6.966;2022-12-18T00:07:58;-2.37;77.79
26721;HTU21D;15950;51.112;6.966;2022-12-18T00:11:07;-2.42;77.93
26721;HTU21D;15950;51.112;6.966;2022-12-18T00:14:03;-2.47;77.67
26721;HTU21D;15950;51.112;6.966;2022-12-18T00:16:58;-2.56;77.95
26721;HTU21D;15950;51.112;6.966;2022-12-18T00:20:04;-2.28;77.63
26721;HTU21D;15950;51.112;6.966;2022-12-18T00:23:00;-2.30;77.30
26721;HTU21D;15950;51.112;6.966;2022-12-18T00:26:09;-2.35;77.27
26721;HTU21D;15950;51.112;6.966;2022-12-18T00:31:58;-2.34;77.11
26721;HTU21D;15950;51.112;6.966;2022-12-18T00:35:01;-2.33;77.05
26721;HTU21D;15950;51.112;6.966;2022-12-18T00:38:01;-2.26;77.04
26721;HTU21D;15950;51.112;6.966;2022-12-18T00:41:01;-2.40;77.05
26721;HTU21D;15950;51.112;6.966;2022-12-18T00:44:06;-2.31;77.23
26721;HTU21D;15950;51.112;6.966;2022-12-18T00:46:58;-2.39;77.17
26721;HTU21D;15950;51.112;6.966;2022-12-18T00:49:57;-2.33;77.05
26721;HTU21D;15950;51.112;6.966;2022-12-18T00:52:57;-2.44;76.98
26721;HTU21D;15950;51.112;6.966;2022-12-18T00:55:57;-2.39;77.16
26721;HTU21D;15950;51.112;6.966;2022-12-18T00:58:57;-2.48;77.32
26721;HTU21D;15950;51.112;6.966;2022-12-18T01:01:57;-2.56;77.34
26721;HTU21D;15950;51.112;6.966;2022-12-18T01:04:57;-2.50;77.54
26721;HTU21D;15950;51.112;6.966;2022-12-18T01:07:58;-2.40;77.38
26721;HTU21D;15950;51.112;6.966;2022-12-18T01:10:57;-2.49;77.26
26721;HTU21D;15950;51.112;6.966;2022-12-18T01:14:01;-2.42;77.46
26721;HTU21D;15950;51.112;6.966;2022-12-18T01:16:58;-2.43;77.29
26721;HTU21D;15950;51.112;6.966;2022-12-18T01:19:57;-2.37;77.04
26721;HTU21D;15950;51.112;6.966;2022-12-18T01:22:58;-2.39;76.88
26721;HTU21D;15950;51.112;6.966;2022-12-18T01:25:57;-2.35;76.88
26721;HTU21D;15950;51.112;6.966;2022-12-18T01:28:58;-2.42;76.97
26721;HTU21D;15950;51.112;6.966;2022-12-18T01:31:58;-2.51;77.21
26721;HTU21D;15950;51.112;6.966;2022-12-18T01:34:58;-2.44;77.31
26721;HTU21D;15950;51.112;6.966;2022-12-18T01:37:58;-2.57;77.30
26721;HTU21D;15950;51.112;6.966;2022-12-18T01:40:58;-2.46;77.30
26721;HTU21D;15950;51.112;6.966;2022-12-18T01:43:58;-2.36;77.31
26721;HTU21D;15950;51.112;6.966;2022-12-18T01:46:57;-2.21;76.89
26721;HTU21D;15950;51.112;6.966;2022-12-18T01:50:00;-2.10;76.37
26721;HTU21D;15950;51.112;6.966;2022-12-18T01:55:58;-1.73;75.31
26721;HTU21D;15950;51.112;6.966;2022-12-18T01:59:04;-1.73;74.81
26721;HTU21D;15950;51.112;6.966;2022-12-18T02:01:57;-1.93;74.86
26721;HTU21D;15950;51.112;6.966;2022-12-18T02:04:58;-1.96;75.09
26721;HTU21D;15950;51.112;6.966;2022-12-18T02:11:46;-2.16;75.71
26721;HTU21D;15950;51.112;6.966;2022-12-18T02:23:08;-2.25;76.66
26721;HTU21D;15950;51.112;6.966;2022-12-18T02:29:06;-2.21;76.91
26721;HTU21D;15950;51.112;6.966;2022-12-18T02:31:59;-2.13;76.76
26721;HTU21D;15950;51.112;6.966;2022-12-18T02:34:59;-2.06;76.57
26721;HTU21D;15950;51.112;6.966;2022-12-18T02:37:58;-2.01;76.34
26721;HTU21D;15950;51.112;6.966;2022-12-18T02:40:57;-2.11;76.31
26721;HTU21D;15950;51.112;6.966;2022-12-18T02:44:00;-2.27;76.60
26721;HTU21D;15950;51.112;6.966;2022-12-18T02:46:57;-2.35;77.02
26721;HTU21D;15950;51.112;6.966;2022-12-18T02:50:01;-2.42;77.39
26721;HTU21D;15950;51.112;6.966;2022-12-18T02:59:04;-2.44;77.78
26721;HTU21D;15950;51.112;6.966;2022-12-18T03:02:02;-2.38;77.87
26721;HTU21D;15950;51.112;6.966;2022-12-18T03:05:07;-2.47;78.11
26721;HTU21D;15950;51.112;6.966;2022-12-18T03:08:06;-2.43;78.04
26721;HTU21D;15950;51.112;6.966;2022-12-18T03:11:03;-2.48;78.02
26721;HTU21D;15950;51.112;6.966;2022-12-18T03:13:58;-2.49;78.06
26721;HTU21D;15950;51.112;6.966;2022-12-18T03:17:02;-2.56;78.11
26721;HTU21D;15950;51.112;6.966;2022-12-18T03:20:03;-2.51;78.18
26721;HTU21D;15950;51.112;6.966;2022-12-18T03:23:03;-2.36;77.92
26721;HTU21D;15950;51.112;6.966;2022-12-18T03:26:00;-2.51;78.10
26721;HTU21D;15950;51.112;6.966;2022-12-18T03:29:48;-2.53;77.98
26721;HTU21D;15950;51.112;6.966;2022-12-18T03:32:04;-2.44;77.99
26721;HTU21D;15950;51.112;6.966;2022-12-18T03:35:01;-2.42;77.84
26721;HTU21D;15950;51.112;6.966;2022-12-18T03:37:57;-2.38;77.79
26721;HTU21D;15950;51.112;6.966;2022-12-18T03:41:05;-2.24;77.38
26721;HTU21D;15950;51.112;6.966;2022-12-18T03:50:11;-2.25;77.50
26721;HTU21D;15950;51.112;6.966;2022-12-18T03:55:59;-2.30;77.21
26721;HTU21D;15950;51.112;6.966;2022-12-18T03:58:59;-2.33;77.24
26721;HTU21D;15950;51.112;6.966;2022-12-18T04:01:59;-2.32;77.45
26721;HTU21D;15950;51.112;6.966;2022-12-18T04:05:00;-2.40;77.53
26721;HTU21D;15950;51.112;6.966;2022-12-18T04:07:58;-2.31;77.38
26721;HTU21D;15950;51.112;6.966;2022-12-18T04:10:57;-2.30;77.50
26721;HTU21D;15950;51.112;6.966;2022-12-18T04:13:58;-2.26;77.31
26721;HTU21D;15950;51.112;6.966;2022-12-18T04:16:57;-2.32;77.37
26721;HTU21D;15950;51.112;6.966;2022-12-18T04:19:57;-2.34;77.56
26721;HTU21D;15950;51.112;6.966;2022-12-18T04:22:57;-2.31;77.66
26721;HTU21D;15950;51.112;6.966;2022-12-18T04:25:57;-2.40;77.65
26721;HTU21D;15950;51.112;6.966;2022-12-18T04:28:57;-2.23;77.54
26721;HTU21D;15950;51.112;6.966;2022-12-18T04:31:57;-2.31;77.13
26721;HTU21D;15950;51.112;6.966;2022-12-18T04:34:57;-2.05;76.73
26721;HTU21D;15950;51.112;6.966;2022-12-18T04:37:57;-2.04;76.28
26721;HTU21D;15950;51.112;6.966;2022-12-18T04:40:57;-1.97;75.85
26721;HTU21D;15950;51.112;6.966;2022-12-18T04:43:57;-1.87;75.40
26721;HTU21D;15950;51.112;6.966;2022-12-18T04:46:57;-1.90;74.97
26721;HTU21D;15950;51.112;6.966;2022-12-18T04:49:57;-1.98;74.84
26721;HTU21D;15950;51.112;6.966;2022-12-18T04:52:58;-2.07;74.93
26721;HTU21D;15950;51.112;6.966;2022-12-18T04:56:03;-2.38;75.28
26721;HTU21D;15950;51.112;6.966;2022-12-18T04:58:57;-2.76;76.28
26721;HTU21D;15950;51.112;6.966;2022-12-18T05:01:57;-3.00;77.07
26721;HTU21D;15950;51.112;6.966;2022-12-18T05:04:57;-3.27;77.95
26721;HTU21D;15950;51.112;6.966;2022-12-18T05:07:57;-3.41;78.76
26721;HTU21D;15950;51.112;6.966;2022-12-18T05:11:03;-3.53;79.50
26721;HTU21D;15950;51.112;6.966;2022-12-18T05:13:57;-3.84;80.17
26721;HTU21D;15950;51.112;6.966;2022-12-18T05:16:57;-4.01;81.12
26721;HTU21D;15950;51.112;6.966;2022-12-18T05:19:57;-4.09;81.63
26721;HTU21D;15950;51.112;6.966;2022-12-18T05:22:57;-4.09;82.07
26721;HTU21D;15950;51.112;6.966;2022-12-18T05:26:00;-4.18;82.24
26721;HTU21D;15950;51.112;6.966;2022-12-18T05:28:57;-4.18;82.13
26721;HTU21D;15950;51.112;6.966;2022-12-18T05:31:57;-4.24;81.72
26721;HTU21D;15950;51.112;6.966;2022-12-18T05:34:57;-4.02;80.89
26721;HTU21D;15950;51.112;6.966;2022-12-18T05:37:57;-4.06;80.49
26721;HTU21D;15950;51.112;6.966;2022-12-18T05:40:58;-3.89;80.23
26721;HTU21D;15950;51.112;6.966;2022-12-18T05:43:58;-3.70;79.64
26721;HTU21D;15950;51.112;6.966;2022-12-18T05:46:57;-3.81;79.07
26721;HTU21D;15950;51.112;6.966;2022-12-18T05:49:57;-3.85;79.28
26721;HTU21D;15950;51.112;6.966;2022-12-18T05:52:57;-4.03;80.00
26721;HTU21D;15950;51.112;6.966;2022-12-18T05:56:01;-3.97;80.07
26721;HTU21D;15950;51.112;6.966;2022-12-18T05:58:57;-3.88;80.43
26721;HTU21D;15950;51.112;6.966;2022-12-18T06:01:57;-3.83;80.30
26721;HTU21D;15950;51.112;6.966;2022-12-18T06:04:57;-3.75;80.10
26721;HTU21D;15950;51.112;6.966;2022-12-18T06:07:57;-3.73;79.83
26721;HTU21D;15950;51.112;6.966;2022-12-18T06:10:57;-3.87;79.78
26721;HTU21D;15950;51.112;6.966;2022-12-18T06:13:57;-4.06;80.36
26721;HTU21D;15950;51.112;6.966;2022-12-18T06:16:57;-4.29;80.89
26721;HTU21D;15950;51.112;6.966;2022-12-18T06:19:57;-4.63;81.78
26721;HTU21D;15950;51.112;6.966;2022-12-18T06:22:57;-4.15;81.59
26721;HTU21D;15950;51.112;6.966;2022-12-18T06:25:57;-4.29;80.64
26721;HTU21D;15950;51.112;6.966;2022-12-18T06:28:57;-4.36;81.07
26721;HTU21D;15950;51.112;6.966;2022-12-18T06:31:57;-4.74;82.08
26721;HTU21D;15950;51.112;6.966;2022-12-18T06:34:57;-4.93;82.55
26721;HTU21D;15950;51.112;6.966;2022-12-18T06:37:57;-4.81;82.87
26721;HTU21D;15950;51.112;6.966;2022-12-18T06:40:57;-4.98;82.50
26721;HTU21D;15950;51.112;6.966;2022-12-18T06:43:58;-4.56;82.26
26721;HTU21D;15950;51.112;6.966;2022-12-18T06:46:57;-4.47;81.42
26721;HTU21D;15950;51.112;6.966;2022-12-18T06:49:57;-4.47;81.17
26721;HTU21D;15950;51.112;6.966;2022-12-18T06:52:57;-4.57;81.43
26721;HTU21D;15950;51.112;6.966;2022-12-18T06:56:02;-4.94;82.53
26721;HTU21D;15950;51.112;6.966;2022-12-18T06:58:57;-5.05;83.64
26721;HTU21D;15950;51.112;6.966;2022-12-18T07:01:57;-5.16;84.58
26721;HTU21D;15950;51.112;6.966;2022-12-18T07:04:57;-5.10;85.16
26721;HTU21D;15950;51.112;6.966;2022-12-18T07:07:58;-5.10;85.35
26721;HTU21D;15950;51.112;6.966;2022-12-18T07:10:57;-4.93;85.13
26721;HTU21D;15950;51.112;6.966;2022-12-18T07:13:59;-4.85;84.95
26721;HTU21D;15950;51.112;6.966;2022-12-18T07:16:57;-4.87;84.81
26721;HTU21D;15950;51.112;6.966;2022-12-18T07:19:57;-4.73;84.49
26721;HTU21D;15950;51.112;6.966;2022-12-18T07:22:57;-4.61;84.07
26721;HTU21D;15950;51.112;6.966;2022-12-18T07:26:01;-4.87;84.23
26721;HTU21D;15950;51.112;6.966;2022-12-18T07:28:57;-4.70;84.33
26721;HTU21D;15950;51.112;6.966;2022-12-18T07:31:57;-4.82;84.19
26721;HTU21D;15950;51.112;6.966;2022-12-18T07:34:57;-4.70;84.46
26721;HTU21D;15950;51.112;6.966;2022-12-18T07:37:57;-4.71;84.18
26721;HTU21D;15950;51.112;6.966;2022-12-18T07:41:20;-4.60;83.91
26721;HTU21D;15950;51.112;6.966;2022-12-18T07:43:57;-4.54;83.68
26721;HTU21D;15950;51.112;6.966;2022-12-18T07:46:57;-4.52;83.49
26721;HTU21D;15950;51.112;6.966;2022-12-18T07:49:57;-4.42;83.30
26721;HTU21D;15950;51.112;6.966;2022-12-18T07:52:57;-4.41;83.28
26721;HTU21D;15950;51.112;6.966;2022-12-18T07:55:58;-4.70;83.45
26721;HTU21D;15950;51.112;6.966;2022-12-18T07:58:58;-4.84;84.34
26721;HTU21D;15950;51.112;6.966;2022-12-18T08:01:57;-4.81;84.76
26721;HTU21D;15950;51.112;6.966;2022-12-18T08:04:57;-4.81;84.91
26721;HTU21D;15950;51.112;6.966;2022-12-18T08:07:58;-4.89;85.13
26721;HTU21D;15950;51.112;6.966;2022-12-18T08:10:58;-4.68;85.27
26721;HTU21D;15950;51.112;6.966;2022-12-18T08:13:57;-4.76;85.13
26721;HTU21D;15950;51.112;6.966;2022-12-18T08:16:57;-4.66;85.22
26721;HTU21D;15950;51.112;6.966;2022-12-18T08:19:57;-4.53;85.06
26721;HTU21D;15950;51.112;6.966;2022-12-18T08:22:57;-4.33;84.68
26721;HTU21D;15950;51.112;6.966;2022-12-18T08:25:58;-4.31;84.34
26721;HTU21D;15950;51.112;6.966;2022-12-18T08:28:59;-4.17;84.19
26721;HTU21D;15950;51.112;6.966;2022-12-18T08:31:57;-4.12;84.03
26721;HTU21D;15950;51.112;6.966;2022-12-18T08:34:57;-3.97;83.79
26721;HTU21D;15950;51.112;6.966;2022-12-18T08:37:57;-3.96;83.58
26721;HTU21D;15950;51.112;6.966;2022-12-18T08:41:03;-3.87;83.53
26721;HTU21D;15950;51.112;6.966;2022-12-18T08:43:57;-3.74;83.50
26721;HTU21D;15950;51.112;6.966;2022-12-18T08:46:57;-3.65;83.54
26721;HTU21D;15950;51.112;6.966;2022-12-18T08:49:57;-3.59;83.44
26721;HTU21D;15950;51.112;6.966;2022-12-18T08:52:57;-3.52;83.52
26721;HTU21D;15950;51.112;6.966;2022-12-18T08:55:57;-3.38;83.37
26721;HTU21D;15950;51.112;6.966;2022-12-18T08:58:57;-3.29;83.24
26721;HTU21D;15950;51.112;6.966;2022-12-18T09:01:57;-3.16;83.01
26721;HTU21D;15950;51.112;6.966;2022-12-18T09:04:57;-3.07;82.53
26721;HTU21D;15950;51.112;6.966;2022-12-18T09:07:57;-2.84;82.03
26721;HTU21D;15950;51.112;6.966;2022-12-18T09:10:57;-2.63;81.10
26721;HTU21D;15950;51.112;6.966;2022-12-18T09:13:58;-2.56;80.76
26721;HTU21D;15950;51.112;6.966;2022-12-18T09:16:57;-2.43;80.32
26721;HTU21D;15950;51.112;6.966;2022-12-18T09:19:57;-2.37;79.98
26721;HTU21D;15950;51.112;6.966;2022-12-18T09:22:57;-2.38;79.80
26721;HTU21D;15950;51.112;6.966;2022-12-18T09:26:00;-2.31;79.57
26721;HTU21D;15950;51.112;6.966;2022-12-18T09:28:57;-2.27;79.40
26721;HTU21D;15950;51.112;6.966;2022-12-18T09:31:57;-2.15;79.11
26721;HTU21D;15950;51.112;6.966;2022-12-18T09:34:57;-2.06;78.88
26721;HTU21D;15950;51.112;6.966;2022-12-18T09:37:57;-1.97;78.82
26721;HTU21D;15950;51.112;6.966;2022-12-18T09:44:43;-1.77;78.22
26721;HTU21D;15950;51.112;6.966;2022-12-18T09:46:59;-1.67;78.06
26721;HTU21D;15950;51.112;6.966;2022-12-18T09:50:21;-1.62;77.69
26721;HTU21D;15950;51.112;6.966;2022-12-18T09:53:02;-1.47;77.06
26721;HTU21D;15950;51.112;6.966;2022-12-18T09:55:57;-1.37;76.47
26721;HTU21D;15950;51.112;6.966;2022-12-18T09:58:59;-1.23;75.98
26721;HTU21D;15950;51.112;6.966;2022-12-18T10:01:57;-1.16;75.80
26721;HTU21D;15950;51.112;6.966;2022-12-18T10:05:07;-1.10;75.46
26721;HTU21D;15950;51.112;6.966;2022-12-18T10:08:05;-0.95;74.89
26721;HTU21D;15950;51.112;6.966;2022-12-18T10:11:03;-0.90;74.56
26721;HTU21D;15950;51.112;6.966;2022-12-18T10:20:05;-0.62;73.28
26721;HTU21D;15950;51.112;6.966;2022-12-18T10:26:03;-0.44;72.19
26721;HTU21D;15950;51.112;6.966;2022-12-18T10:28:57;-0.31;71.62
26721;HTU21D;15950;51.112;6.966;2022-12-18T10:31:57;-0.27;71.21
26721;HTU21D;15950;51.112;6.966;2022-12-18T10:34:58;-0.12;70.66
26721;HTU21D;15950;51.112;6.966;2022-12-18T10:38:04;-0.05;70.32
26721;HTU21D;15950;51.112;6.966;2022-12-18T10:47:03;0.12;69.86
26721;HTU21D;15950;51.112;6.966;2022-12-18T10:49:57;0.15;69.97
26721;HTU21D;15950;51.112;6.966;2022-12-18T10:52:59;0.25;69.65
26721;HTU21D;15950;51.112;6.966;2022-12-18T10:56:00;0.21;69.79
26721;HTU21D;15950;51.112;6.966;2022-12-18T10:59:03;0.28;69.57
26721;HTU21D;15950;51.112;6.966;2022-12-18T11:01:58;0.29;69.50
26721;HTU21D;15950;51.112;6.966;2022-12-18T11:04:57;0.37;69.12
26721;HTU21D;15950;51.112;6.966;2022-12-18T11:07:58;0.45;68.94
26721;HTU21D;15950;51.112;6.966;2022-12-18T11:10:57;0.49;68.62
26721;HTU21D;15950;51.112;6.966;2022-12-18T11:14:06;0.53;68.65
26721;HTU21D;15950;51.112;6.966;2022-12-18T11:16:59;0.55;68.43
26721;HTU21D;15950;51.112;6.966;2022-12-18T11:19:59;0.58;68.12
26721;HTU21D;15950;51.112;6.966;2022-12-18T11:25:59;0.65;67.62
26721;HTU21D;15950;51.112;6.966;2022-12-18T11:32:22;0.69;67.60
26721;HTU21D;15950;51.112;6.966;2022-12-18T11:38:02;0.78;67.30
26721;HTU21D;15950;51.112;6.966;2022-12-18T11:41:01;0.71;67.45
26721;HTU21D;15950;51.112;6.966;2022-12-18T11:43:59;0.70;67.63
26721;HTU21D;15950;51.112;6.966;2022-12-18T11:47:23;0.74;67.41
26721;HTU21D;15950;51.112;6.966;2022-12-18T11:50:01;0.67;67.51
26721;HTU21D;15950;51.112;6.966;2022-12-18T11:52:57;0.68;67.80
26721;HTU21D;15950;51.112;6.966;2022-12-18T12:08:15;0.64;67.68
26721;HTU21D;15950;51.112;6.966;2022-12-18T12:29:09;0.58;67.91
26721;HTU21D;15950;51.112;6.966;2022-12-18T12:41:02;0.53;68.22
26721;HTU21D;15950;51.112;6.966;2022-12-18T12:44:00;0.54;68.51
26721;HTU21D;15950;51.112;6.966;2022-12-18T12:47:00;0.58;68.42
26721;HTU21D;15950;51.112;6.966;2022-12-18T12:49:59;0.55;68.33
26721;HTU21D;15950;51.112;6.966;2022-12-18T12:52:57;0.51;68.20
26721;HTU21D;15950;51.112;6.966;2022-12-18T12:55:57;0.51;68.10
26721;HTU21D;15950;51.112;6.966;2022-12-18T12:59:05;0.54;68.30
26721;HTU21D;15950;51.112;6.966;2022-12-18T13:10:58;0.59;68.65
26721;HTU21D;15950;51.112;6.966;2022-12-18T13:13:57;0.61;68.63
26721;HTU21D;15950;51.112;6.966;2022-12-18T13:22:57;0.43;67.97
26721;HTU21D;15950;51.112;6.966;2022-12-18T13:28:58;0.42;67.81
26721;HTU21D;15950;51.112;6.966;2022-12-18T13:31:59;0.44;67.63
26721;HTU21D;15950;51.112;6.966;2022-12-18T13:37:57;0.36;67.53
26721;HTU21D;15950;51.112;6.966;2022-12-18T13:40:59;0.36;67.59
26721;HTU21D;15950;51.112;6.966;2022-12-18T13:46:57;0.36;67.72
26721;HTU21D;15950;51.112;6.966;2022-12-18T13:49:57;0.37;67.79
26721;HTU21D;15950;51.112;6.966;2022-12-18T13:52:57;0.35;67.88
26721;HTU21D;15950;51.112;6.966;2022-12-18T13:55:57;0.44;68.01
26721;HTU21D;15950;51.112;6.966;2022-12-18T14:01:59;0.43;68.63
26721;HTU21D;15950;51.112;6.966;2022-12-18T14:04:57;0.39;68.55
26721;HTU21D;15950;51.112;6.966;2022-12-18T14:08:06;0.31;68.68
26721;HTU21D;15950;51.112;6.966;2022-12-18T14:10:57;0.34;68.51
26721;HTU21D;15950;51.112;6.966;2022-12-18T14:13:57;0.30;68.26
26721;HTU21D;15950;51.112;6.966;2022-12-18T14:16:57;0.31;68.40
26721;HTU21D;15950;51.112;6.966;2022-12-18T14:19:57;0.26;68.44
26721;HTU21D;15950;51.112;6.966;2022-12-18T14:22:57;0.21;68.49
26721;HTU21D;15950;51.112;6.966;2022-12-18T14:25:57;0.26;68.51
26721;HTU21D;15950;51.112;6.966;2022-12-18T14:28:59;0.22;68.45
26721;HTU21D;15950;51.112;6.966;2022-12-18T14:32:06;0.32;68.30
26721;HTU21D;15950;51.112;6.966;2022-12-18T14:34:57;0.21;68.33
26721;HTU21D;15950;51.112;6.966;2022-12-18T14:44:05;0.17;68.57
26721;HTU21D;15950;51.112;6.966;2022-12-18T14:46:57;0.11;68.68
26721;HTU21D;15950;51.112;6.966;2022-12-18T14:49:57;0.11;68.66
26721;HTU21D;15950;51.112;6.966;2022-12-18T14:52:57;0.11;68.71
26721;HTU21D;15950;51.112;6.966;2022-12-18T14:55:57;0.17;68.40
26721;HTU21D;15950;51.112;6.966;2022-12-18T14:59:04;0.14;68.40
26721;HTU21D;15950;51.112;6.966;2022-12-18T15:08:01;0.08;68.44
26721;HTU21D;15950;51.112;6.966;2022-12-18T15:10:57;0.11;68.40
26721;HTU21D;15950;51.112;6.966;2022-12-18T15:13:58;0.06;68.41
26721;HTU21D;15950;51.112;6.966;2022-12-18T15:16:59;0.03;68.51
26721;HTU21D;15950;51.112;6.966;2022-12-18T15:20:02;0.10;68.45
26721;HTU21D;15950;51.112;6.966;2022-12-18T15:22:57;0.07;68.33
26721;HTU21D;15950;51.112;6.966;2022-12-18T15:26:02;0.07;68.38
26721;HTU21D;15950;51.112;6.966;2022-12-18T15:28:57;0.04;68.52
26721;HTU21D;15950;51.112;6.966;2022-12-18T15:32:03;0.05;68.44
26721;HTU21D;15950;51.112;6.966;2022-12-18T15:35:13;0.01;68.63
26721;HTU21D;15950;51.112;6.966;2022-12-18T15:37:57;0.03;68.74
26721;HTU21D;15950;51.112;6.966;2022-12-18T15:40:57;-0.02;68.80
26721;HTU21D;15950;51.112;6.966;2022-12-18T15:43:57;-0.05;68.84
26721;HTU21D;15950;51.112;6.966;2022-12-18T15:46:57;-0.05;68.81
26721;HTU21D;15950;51.112;6.966;2022-12-18T15:49:57;-0.06;68.97
26721;HTU21D;15950;51.112;6.966;2022-12-18T15:52:57;-0.06;69.05
26721;HTU21D;15950;51.112;6.966;2022-12-18T15:55:57;-0.15;69.17
26721;HTU21D;15950;51.112;6.966;2022-12-18T15:58:57;-0.10;69.33
26721;HTU21D;15950;51.112;6.966;2022-12-18T16:01:57;-0.15;69.53
26721;HTU21D;15950;51.112;6.966;2022-12-18T16:04:57;-0.17;69.74
26721;HTU21D;15950;51.112;6.966;2022-12-18T16:07:57;-0.17;69.97
26721;HTU21D;15950;51.112;6.966;2022-12-18T16:10:58;-0.22;70.17
26721;HTU21D;15950;51.112;6.966;2022-12-18T16:13:57;-0.24;70.31
26721;HTU21D;15950;51.112;6.966;2022-12-18T16:17:02;-0.22;70.48
26721;HTU21D;15950;51.112;6.966;2022-12-18T16:19:57;-0.23;70.71
26721;HTU21D;15950;51.112;6.966;2022-12-18T16:22:57;-0.27;71.03
26721;HTU21D;15950;51.112;6.966;2022-12-18T16:25:57;-0.26;71.35
26721;HTU21D;15950;51.112;6.966;2022-12-18T16:28:57;-0.24;71.54
26721;HTU21D;15950;51.112;6.966;2022-12-18T16:31:58;-0.31;71.84
26721;HTU21D;15950;51.112;6.966;2022-12-18T16:34:59;-0.31;72.15
26721;HTU21D;15950;51.112;6.966;2022-12-18T16:37:57;-0.33;72.48
26721;HTU21D;15950;51.112;6.966;2022-12-18T16:40:57;-0.29;72.70
26721;HTU21D;15950;51.112;6.966;2022-12-18T16:43:57;-0.29;72.85
26721;HTU21D;15950;51.112;6.966;2022-12-18T16:46:57;-0.30;73.22
26721;HTU21D;15950;51.112;6.966;2022-12-18T16:49:57;-0.34;73.38
26721;HTU21D;15950;51.112;6.966;2022-12-18T16:52:57;-0.30;73.46
26721;HTU21D;15950;51.112;6.966;2022-12-18T16:55:57;-0.35;73.66
26721;HTU21D;15950;51.112;6.966;2022-12-18T16:58:58;-0.26;73.61
26721;HTU21D;15950;51.112;6.966;2022-12-18T17:01:57;-0.33;73.79
26721;HTU21D;15950;51.112;6.966;2022-12-18T17:04:57;-0.30;74.03
26721;HTU21D;15950;51.112;6.966;2022-12-18T17:07:57;-0.36;74.08
26721;HTU21D;15950;51.112;6.966;2022-12-18T17:11:05;-0.31;74.29
26721;HTU21D;15950;51.112;6.966;2022-12-18T17:13:57;-0.34;74.49
26721;HTU21D;15950;51.112;6.966;2022-12-18T17:16:57;-0.35;74.62
26721;HTU21D;15950;51.112;6.966;2022-12-18T17:19:57;-0.31;74.62
26721;HTU21D;15950;51.112;6.966;2022-12-18T17:22:57;-0.35;74.65
26721;HTU21D;15950;51.112;6.966;2022-12-18T17:25:58;-0.28;74.70
26721;HTU21D;15950;51.112;6.966;2022-12-18T17:28:58;-0.40;74.79
26721;HTU21D;15950;51.112;6.966;2022-12-18T17:31:57;-0.39;74.93
26721;HTU21D;15950;51.112;6.966;2022-12-18T17:34:57;-0.39;74.98
26721;HTU21D;15950;51.112;6.966;2022-12-18T17:37:57;-0.40;75.05
26721;HTU21D;15950;51.112;6.966;2022-12-18T17:41:02;-0.40;75.14
26721;HTU21D;15950;51.112;6.966;2022-12-18T17:44:03;-0.40;75.16
26721;HTU21D;15950;51.112;6.966;2022-12-18T17:46:57;-0.45;75.26
26721;HTU21D;15950;51.112;6.966;2022-12-18T17:49:57;-0.45;75.35
26721;HTU21D;15950;51.112;6.966;2022-12-18T17:52:57;-0.40;75.41
26721;HTU21D;15950;51.112;6.966;2022-12-18T17:55:58;-0.47;75.37
26721;HTU21D;15950;51.112;6.966;2022-12-18T17:58:57;-0.43;75.32
26721;HTU21D;15950;51.112;6.966;2022-12-18T18:01:57;-0.48;75.57
26721;HTU21D;15950;51.112;6.966;2022-12-18T18:04:57;-0.50;75.63
26721;HTU21D;15950;51.112;6.966;2022-12-18T18:07:57;-0.52;75.64
26721;HTU21D;15950;51.112;6.966;2022-12-18T18:10:57;-0.51;75.68
26721;HTU21D;15950;51.112;6.966;2022-12-18T18:13:57;-0.53;75.77
26721;HTU21D;15950;51.112;6.966;2022-12-18T18:16:57;-0.56;75.96
26721;HTU21D;15950;51.112;6.966;2022-12-18T18:19:57;-0.59;76.02
26721;HTU21D;15950;51.112;6.966;2022-12-18T18:22:57;-0.57;75.95
26721;HTU21D;15950;51.112;6.966;2022-12-18T18:26:02;-0.55;75.97
26721;HTU21D;15950;51.112;6.966;2022-12-18T18:28:58;-0.59;76.06
26721;HTU21D;15950;51.112;6.966;2022-12-18T18:31:57;-0.61;76.01
26721;HTU21D;15950;51.112;6.966;2022-12-18T18:34:57;-0.56;76.04
26721;HTU21D;15950;51.112;6.966;2022-12-18T18:37:57;-0.59;76.04
26721;HTU21D;15950;51.112;6.966;2022-12-18T18:40:59;-0.60;76.08
26721;HTU21D;15950;51.112;6.966;2022-12-18T18:43:57;-0.61;75.95
26721;HTU21D;15950;51.112;6.966;2022-12-18T18:46:58;-0.63;76.09
26721;HTU21D;15950;51.112;6.966;2022-12-18T18:49:57;-0.62;76.11
26721;HTU21D;15950;51.112;6.966;2022-12-18T18:52:57;-0.71;76.21
26721;HTU21D;15950;51.112;6.966;2022-12-18T18:55:57;-0.57;76.32
26721;HTU21D;15950;51.112;6.966;2022-12-18T18:58:57;-0.63;76.37
26721;HTU21D;15950;51.112;6.966;2022-12-18T19:01:57;-0.61;76.37
26721;HTU21D;15950;51.112;6.966;2022-12-18T19:04:57;-0.60;76.18
26721;HTU21D;15950;51.112;6.966;2022-12-18T19:07:57;-0.57;76.16
26721;HTU21D;15950;51.112;6.966;2022-12-18T19:10:59;-0.61;76.21
26721;HTU21D;15950;51.112;6.966;2022-12-18T19:13:58;-0.63;76.33
26721;HTU21D;15950;51.112;6.966;2022-12-18T19:16:57;-0.52;76.12
26721;HTU21D;15950;51.112;6.966;2022-12-18T19:19:57;-0.55;76.02
26721;HTU21D;15950;51.112;6.966;2022-12-18T19:22:57;-0.53;75.86
26721;HTU21D;15950;51.112;6.966;2022-12-18T19:26:01;-0.50;75.63
26721;HTU21D;15950;51.112;6.966;2022-12-18T19:29:01;-0.57;75.78
26721;HTU21D;15950;51.112;6.966;2022-12-18T19:31:57;-0.49;75.66
26721;HTU21D;15950;51.112;6.966;2022-12-18T19:34:57;-0.51;75.71
26721;HTU21D;15950;51.112;6.966;2022-12-18T19:37:57;-0.51;75.74
26721;HTU21D;15950;51.112;6.966;2022-12-18T19:40:57;-0.47;75.76
26721;HTU21D;15950;51.112;6.966;2022-12-18T19:43:57;-0.44;75.59
26721;HTU21D;15950;51.112;6.966;2022-12-18T19:46:57;-0.45;75.58
26721;HTU21D;15950;51.112;6.966;2022-12-18T19:49:57;-0.47;75.53
26721;HTU21D;15950;51.112;6.966;2022-12-18T19:52:57;-0.43;75.50
26721;HTU21D;15950;51.112;6.966;2022-12-18T19:55:57;-0.48;75.69
26721;HTU21D;15950;51.112;6.966;2022-12-18T19:58:57;-0.39;75.52
26721;HTU21D;15950;51.112;6.966;2022-12-18T20:01:57;-0.40;75.46
26721;HTU21D;15950;51.112;6.966;2022-12-18T20:04:57;-0.38;75.42
26721;HTU21D;15950;51.112;6.966;2022-12-18T20:07:57;-0.34;75.43
26721;HTU21D;15950;51.112;6.966;2022-12-18T20:10:57;-0.33;75.39
26721;HTU21D;15950;51.112;6.966;2022-12-18T20:14:00;-0.27;75.38
26721;HTU21D;15950;51.112;6.966;2022-12-18T20:16:57;-0.34;75.60
26721;HTU21D;15950;51.112;6.966;2022-12-18T20:19:57;-0.29;75.81
26721;HTU21D;15950;51.112;6.966;2022-12-18T20:22:57;-0.31;75.99
26721;HTU21D;15950;51.112;6.966;2022-12-18T20:25:57;-0.28;76.11
26721;HTU21D;15950;51.112;6.966;2022-12-18T20:28:57;-0.27;76.22
26721;HTU21D;15950;51.112;6.966;2022-12-18T20:31:57;-0.20;76.15
26721;HTU21D;15950;51.112;6.966;2022-12-18T20:34:57;-0.21;75.84
26721;HTU21D;15950;51.112;6.966;2022-12-18T20:37:57;-0.06;75.62
26721;HTU21D;15950;51.112;6.966;2022-12-18T20:40:57;-0.10;75.56
26721;HTU21D;15950;51.112;6.966;2022-12-18T20:43:57;-0.08;75.54
26721;HTU21D;15950;51.112;6.966;2022-12-18T20:46:57;-0.06;75.50
26721;HTU21D;15950;51.112;6.966;2022-12-18T20:49:57;-0.04;75.45
26721;HTU21D;15950;51.112;6.966;2022-12-18T20:52:57;-0.03;75.47
26721;HTU21D;15950;51.112;6.966;2022-12-18T20:55:57;-0.00;75.50
26721;HTU21D;15950;51.112;6.966;2022-12-18T20:58:58;-0.01;75.52
26721;HTU21D;15950;51.112;6.966;2022-12-18T21:01:57;0.01;75.50
26721;HTU21D;15950;51.112;6.966;2022-12-18T21:04:57;0.03;75.60